Time;durP1;ratioP1;P1;durP2;ratioP2;P2;SDS_P1;SDS_P2;PMS_P1;PMS_P2;Temp;Humidity;BMP_temperature;BMP_pressure;BME280_temperature;BME280_humidity;BME280_pressure;Samples;Min_cycle;Max_cycle;Signal;HPM_P1;HPM_P2
2021/09/23 00:06:31;;;;;;;8.17;7.47;;;;;;;9.52;100.00;100931.84;20747696;28;20258;-67
2021/09/23 00:16:35;;;;;;;7.83;7.07;;;;;;;9.53;100.00;100925.59;20747101;28;20609;-67
2021/09/23 00:26:38;;;;;;;7.57;6.87;;;;;;;9.53;100.00;100903.41;20728393;28;20596;-67
2021/09/23 00:36:41;;;;;;;7.00;6.40;;;;;;;9.54;100.00;100895.31;20745653;28;20228;-68
2021/09/23 00:46:44;;;;;;;7.20;6.60;;;;;;;9.56;100.00;100877.44;20727574;28;20228;-67
2021/09/23 00:56:48;;;;;;;7.33;6.70;;;;;;;9.54;100.00;100860.66;20726603;28;20220;-68
2021/09/23 01:06:52;;;;;;;7.87;7.10;;;;;;;9.55;100.00;100846.41;20743146;28;20240;-67
2021/09/23 01:16:56;;;;;;;7.47;6.77;;;;;;;9.54;100.00;100836.69;20742400;28;20217;-67
2021/09/23 01:27:08;;;;;;;9.93;9.03;;;;;;;9.52;100.00;100817.28;20723967;28;20231;-67
2021/09/23 01:37:10;;;;;;;9.33;8.40;;;;;;;9.41;100.00;100798.34;20741620;28;21020;-67
2021/09/23 01:47:21;;;;;;;9.03;8.07;;;;;;;9.16;100.00;100772.09;20740770;28;20235;-67
2021/09/23 01:57:28;;;;;;;10.20;9.17;;;;;;;8.99;100.00;100780.06;20722841;28;20227;-68
2021/09/23 02:17:29;;;;;;;12.00;10.80;;;;;;;8.87;100.00;100781.53;21106960;27;1379321;-67
2021/09/23 02:27:34;;;;;;;11.33;10.23;;;;;;;8.85;100.00;100767.44;21143331;28;20755;-67
2021/09/23 02:37:37;;;;;;;14.60;11.87;;;;;;;8.81;100.00;100755.25;21141266;28;20250;-68
2021/09/23 02:47:40;;;;;;;13.70;12.30;;;;;;;8.72;100.00;100752.16;21140458;28;20228;-67
2021/09/23 02:57:43;;;;;;;14.43;12.67;;;;;;;8.59;100.00;100743.94;21139832;28;20260;-67
2021/09/23 03:07:46;;;;;;;13.77;11.73;;;;;;;8.66;100.00;100732.06;21121993;28;20236;-67
2021/09/23 03:17:49;;;;;;;11.73;10.53;;;;;;;8.79;100.00;100730.53;21138284;28;20652;-67
2021/09/23 03:27:54;;;;;;;13.20;11.73;;;;;;;8.91;100.00;100719.25;21085774;28;20232;-67
2021/09/23 03:37:58;;;;;;;11.80;10.60;;;;;;;9.02;100.00;100690.28;21081662;28;20246;-67
2021/09/23 03:48:01;;;;;;;10.70;9.67;;;;;;;9.14;100.00;100682.59;21079793;28;20304;-67
2021/09/23 03:58:04;;;;;;;9.50;8.60;;;;;;;9.23;100.00;100677.63;21078341;28;20232;-66
2021/09/23 04:08:07;;;;;;;9.67;8.67;;;;;;;9.33;100.00;100670.88;21120112;28;20712;-67
2021/09/23 04:18:15;;;;;;;9.40;8.60;;;;;;;9.42;100.00;100645.53;21099176;28;20666;-67
2021/09/23 04:28:17;;;;;;;9.87;8.90;;;;;;;9.42;100.00;100629.56;21059050;28;20227;-67
2021/09/23 04:38:23;;;;;;;8.97;8.17;;;;;;;9.41;100.00;100627.88;21055953;28;20233;-67
2021/09/23 04:48:26;;;;;;;9.10;8.30;;;;;;;9.52;100.00;100624.59;21057164;28;20792;-67
2021/09/23 04:58:29;;;;;;;8.90;8.10;;;;;;;9.62;100.00;100609.81;21044239;28;20229;-68
2021/09/23 05:08:32;;;;;;;9.90;8.33;;;;;;;9.70;100.00;100584.47;21072825;28;20244;-68
2021/09/23 05:18:35;;;;;;;8.53;7.73;;;;;;;10.00;100.00;100570.34;21071973;28;20285;-69
2021/09/23 05:28:38;;;;;;;8.10;7.40;;;;;;;10.35;100.00;100585.16;21046162;28;20222;-69
2021/09/23 05:38:42;;;;;;;9.07;8.17;;;;;;;10.74;100.00;100554.38;21065289;28;20218;-69
2021/09/23 05:48:44;;;;;;;8.80;8.00;;;;;;;11.23;100.00;100562.00;21067108;28;20253;-69
2021/09/23 05:58:48;;;;;;;7.83;7.03;;;;;;;11.23;100.00;100572.69;21071055;28;20706;-69
2021/09/23 06:08:50;;;;;;;9.07;8.23;;;;;;;11.16;100.00;100577.56;21070581;28;20706;-69
2021/09/23 06:18:54;;;;;;;8.00;7.30;;;;;;;11.30;100.00;100539.28;21069099;28;20218;-67
2021/09/23 06:28:56;;;;;;;9.57;8.57;;;;;;;11.42;100.00;100562.56;21068812;28;20318;-67
2021/09/23 06:39:00;;;;;;;10.40;9.40;;;;;;;11.81;100.00;100548.47;21069406;28;20234;-66
2021/09/23 06:49:02;;;;;;;9.13;8.27;;;;;;;12.35;100.00;100535.88;21068768;28;20226;-65
2021/09/23 06:59:06;;;;;;;10.10;9.00;;;;;;;13.00;100.00;100530.44;21074985;28;20228;-65
2021/09/23 07:09:08;;;;;;;10.67;9.57;;;;;;;13.39;100.00;100510.69;21083898;28;20225;-68
2021/09/23 07:19:12;;;;;;;10.13;9.23;;;;;;;13.70;100.00;100493.19;21081909;28;20246;-68
2021/09/23 07:29:16;;;;;;;8.77;7.97;;;;;;;14.32;100.00;100479.50;21082317;28;20235;-68
2021/09/23 07:39:20;;;;;;;10.70;9.70;;;;;;;14.58;100.00;100481.06;21080398;28;20233;-68
2021/09/23 07:49:22;;;;;;;17.87;11.70;;;;;;;14.86;100.00;100468.13;21080749;28;20241;-68
2021/09/23 07:59:26;;;;;;;10.20;9.30;;;;;;;15.37;100.00;100480.03;21079473;28;20225;-68
2021/09/23 08:09:29;;;;;;;11.87;10.03;;;;;;;15.59;100.00;100457.66;21078828;28;20226;-68
2021/09/23 08:19:35;;;;;;;10.30;9.40;;;;;;;15.44;100.00;100459.75;21078547;28;20301;-67
2021/09/23 08:29:54;;;;;;;8.80;8.00;;;;;;;15.55;100.00;100449.97;21077479;28;20237;-68
2021/09/23 08:39:58;;;;;;;10.83;8.40;;;;;;;15.65;100.00;100442.84;21075672;28;20230;-68
2021/09/23 08:50:01;;;;;;;11.40;7.23;;;;;;;16.32;100.00;100415.56;21076078;28;20586;-68
2021/09/23 09:00:09;;;;;;;8.70;6.57;;;;;;;17.20;100.00;100396.94;21073841;28;20233;-67
2021/09/23 09:10:13;;;;;;;42.57;10.47;;;;;;;18.07;100.00;100368.13;21072725;28;20291;-68
2021/09/23 09:20:17;;;;;;;9.20;5.20;;;;;;;17.98;100.00;100336.63;21055041;28;20221;-68
2021/09/23 09:30:21;;;;;;;23.43;6.43;;;;;;;18.61;100.00;100320.59;21071856;28;20237;-64
2021/09/23 09:40:32;;;;;;;7.27;4.30;;;;;;;18.36;100.00;100290.53;21072301;28;20225;-65
2021/09/23 09:50:37;;;;;;;49.40;10.30;;;;;;;18.10;100.00;100276.03;21070615;28;20297;-67
2021/09/23 10:00:42;;;;;;;5.83;4.30;;;;;;;18.03;100.00;100257.84;21070981;28;20230;-67
2021/09/23 10:10:45;;;;;;;8.60;4.43;;;;;;;17.81;100.00;100248.25;21068987;28;20225;-67
2021/09/23 10:20:49;;;;;;;5.93;3.90;;;;;;;18.34;100.00;100225.03;21069023;28;20320;-68
2021/09/23 10:30:52;;;;;;;15.77;5.40;;;;;;;18.28;100.00;100193.19;21072633;28;20230;-68
2021/09/23 10:40:57;;;;;;;6.67;3.97;;;;;;;18.38;100.00;100214.75;21085040;28;20252;-67
2021/09/23 10:51:02;;;;;;;53.23;9.47;;;;;;;18.36;100.00;100201.38;21085625;28;20302;-68
2021/09/23 11:01:07;;;;;;;7.87;3.67;;;;;;;18.62;100.00;100195.28;21084422;28;20228;-67
2021/09/23 11:11:10;;;;;;;8.73;3.67;;;;;;;19.06;100.00;100172.75;21082453;28;20230;-67
2021/09/23 11:21:15;;;;;;;4.37;3.17;;;;;;;18.78;100.00;100175.69;21082598;28;20218;-67
2021/09/23 11:31:17;;;;;;;5.87;3.40;;;;;;;18.53;100.00;100163.75;21081353;28;20242;-68
2021/09/23 11:41:21;;;;;;;6.07;3.53;;;;;;;18.30;100.00;100153.38;21081049;28;20315;-67
2021/09/23 11:51:30;;;;;;;15.60;5.10;;;;;;;18.06;100.00;100128.78;21079471;28;20763;-67
2021/09/23 12:01:35;;;;;;;8.40;4.43;;;;;;;18.04;100.00;100103.78;21078813;28;20220;-67
2021/09/23 12:11:38;;;;;;;10.90;5.00;;;;;;;17.72;100.00;100109.66;21077766;28;20770;-67
2021/09/23 12:22:08;;;;;;;7.77;4.90;;;;;;;17.47;100.00;100072.53;21081974;28;20260;-67
2021/09/23 12:32:17;;;;;;;7.87;5.07;;;;;;;17.25;100.00;100062.97;21058839;28;20233;-68
2021/09/23 12:42:23;;;;;;;6.93;5.20;;;;;;;16.95;100.00;100060.47;21076342;28;20238;-68
2021/09/23 12:52:27;;;;;;;8.00;5.50;;;;;;;16.38;100.00;100060.38;21040589;28;20319;-68
2021/09/23 13:02:33;;;;;;;6.17;4.60;;;;;;;16.44;100.00;100043.66;21030843;28;20226;-68
2021/09/23 13:12:39;;;;;;;5.50;4.83;;;;;;;16.80;100.00;100009.72;21042930;28;20307;-68
2021/09/23 13:23:05;;;;;;;6.07;5.47;;;;;;;17.22;100.00;99976.94;21043923;28;20226;-65
2021/09/23 13:33:07;;;;;;;6.27;4.60;;;;;;;17.39;100.00;99951.88;21022007;28;20230;-67
2021/09/23 13:43:12;;;;;;;5.67;4.33;;;;;;;17.36;100.00;99930.59;20998876;28;20594;-68
2021/09/23 13:53:25;;;;;;;5.13;4.60;;;;;;;17.52;100.00;99911.03;20992716;28;20256;-68
2021/09/23 14:03:31;;;;;;;6.40;5.10;;;;;;;17.19;100.00;99886.41;20960219;28;20332;-68
2021/09/23 14:13:45;;;;;;;6.93;4.87;;;;;;;16.70;100.00;99873.34;20958406;28;20753;-67
2021/09/23 14:23:50;;;;;;;8.00;5.17;;;;;;;16.39;100.00;99853.88;20985780;28;20223;-68
2021/09/23 14:33:57;;;;;;;9.60;5.87;;;;;;;16.07;100.00;99812.00;20959055;28;20234;-68
2021/09/23 14:44:01;;;;;;;6.30;5.70;;;;;;;15.78;100.00;99816.63;20995934;28;20229;-68
2021/09/23 14:54:03;;;;;;;5.83;5.23;;;;;;;15.68;100.00;99805.88;21043903;28;20593;-67
2021/09/23 15:04:07;;;;;;;7.57;6.17;;;;;;;15.59;100.00;99801.34;21042442;28;20934;-67
2021/09/23 15:14:09;;;;;;;7.37;5.27;;;;;;;15.65;100.00;99778.41;21050783;28;20233;-66
2021/09/23 15:24:13;;;;;;;8.30;5.77;;;;;;;15.55;100.00;99766.81;21077742;28;20308;-67
2021/09/23 15:34:15;;;;;;;8.83;6.30;;;;;;;15.49;100.00;99736.78;20997664;28;20715;-67
2021/09/23 15:44:19;;;;;;;10.63;6.53;;;;;;;15.29;100.00;99719.00;20996455;28;20585;-66
2021/09/23 15:54:25;;;;;;;7.50;6.80;;;;;;;15.10;100.00;99700.19;20995486;28;20584;-67
2021/09/23 16:04:33;;;;;;;7.40;6.80;;;;;;;14.93;100.00;99648.03;20995316;28;20644;-67
2021/09/23 16:14:36;;;;;;;8.37;7.57;;;;;;;14.82;100.00;99644.63;20994554;28;20742;-67
2021/09/23 16:24:41;;;;;;;8.93;8.13;;;;;;;14.67;100.00;99623.56;20993686;28;20683;-67
2021/09/23 16:34:43;;;;;;;9.23;8.40;;;;;;;14.56;100.00;99623.72;20992902;28;20793;-67
2021/09/23 16:44:47;;;;;;;8.40;7.70;;;;;;;14.47;100.00;99597.72;20992471;28;20284;-66
2021/09/23 16:54:49;;;;;;;8.23;7.53;;;;;;;14.46;100.00;99569.19;20991540;28;20229;-68
2021/09/23 17:04:53;;;;;;;8.50;7.90;;;;;;;14.49;100.00;99539.34;20989372;28;20226;-68
2021/09/23 17:14:56;;;;;;;9.43;8.53;;;;;;;14.50;100.00;99500.78;20990336;28;20230;-68
2021/09/23 17:24:59;;;;;;;9.07;8.37;;;;;;;14.44;100.00;99453.03;21021226;28;20733;-67
2021/09/23 17:35:02;;;;;;;8.50;7.80;;;;;;;14.31;100.00;99431.00;21027119;28;20328;-68
2021/09/23 17:45:08;;;;;;;8.73;7.53;;;;;;;14.14;100.00;99397.69;21150458;28;20220;-68
2021/09/23 17:55:13;;;;;;;6.63;6.13;;;;;;;14.31;100.00;99396.09;21106559;28;20258;-68
2021/09/23 18:05:17;;;;;;;6.87;6.30;;;;;;;14.40;100.00;99380.00;21118384;28;20316;-68
2021/09/23 18:15:21;;;;;;;6.47;5.83;;;;;;;14.59;100.00;99375.56;21147896;28;20540;-68
2021/09/23 18:25:27;;;;;;;6.03;5.53;;;;;;;14.73;100.00;99351.75;21152363;28;20221;-68
2021/09/23 18:35:29;;;;;;;8.33;5.60;;;;;;;14.91;100.00;99335.69;21152720;28;20626;-68
2021/09/23 18:45:33;;;;;;;6.53;6.03;;;;;;;14.90;100.00;99335.84;21153048;28;20717;-68
2021/09/23 18:55:36;;;;;;;7.17;6.37;;;;;;;14.71;100.00;99308.09;21160137;28;20254;-68
2021/09/23 19:05:40;;;;;;;7.67;7.00;;;;;;;14.58;100.00;99288.81;21167194;28;20280;-70
2021/09/23 19:15:42;;;;;;;7.70;6.90;;;;;;;14.43;100.00;99279.56;21159018;28;20232;-70
2021/09/23 19:25:49;;;;;;;7.80;7.10;;;;;;;14.28;100.00;99238.91;21075909;28;20238;-69
2021/09/23 19:35:52;;;;;;;7.70;6.93;;;;;;;14.27;100.00;99214.91;21047341;28;20241;-69
2021/09/23 19:45:56;;;;;;;6.70;6.20;;;;;;;14.27;100.00;99186.22;21018116;28;20283;-68
2021/09/23 20:25:50;;;;;;;5.77;5.37;;;;;;;14.37;100.00;99102.97;20818994;27;20861;-69
2021/09/23 20:35:53;;;;;;;5.60;5.10;;;;;;;14.41;100.00;99077.56;20830727;28;20314;-69
2021/09/23 21:05:51;;;;;;;5.70;5.20;;;;;;;14.13;100.00;99022.25;20837498;28;20852;-70
2021/09/23 21:15:53;;;;;;;6.27;5.77;;;;;;;14.19;100.00;99035.06;20844045;28;20227;-69
2021/09/23 21:25:57;;;;;;;6.40;5.83;;;;;;;13.95;100.00;99007.00;20857061;28;20281;-68
2021/09/23 21:35:59;;;;;;;5.50;5.10;;;;;;;13.68;100.00;99004.34;20908413;28;20233;-69
2021/09/23 21:46:03;;;;;;;5.60;5.03;;;;;;;13.60;100.00;98993.53;20890761;28;20238;-69
2021/09/23 21:56:05;;;;;;;5.07;4.67;;;;;;;13.76;100.00;98948.16;20805820;28;20247;-69
2021/09/23 22:16:06;;;;;;;6.23;5.73;;;;;;;14.33;100.00;98924.50;21021011;27;20400;-68
2021/09/23 22:26:08;;;;;;;5.97;5.57;;;;;;;13.82;100.00;98899.25;21057511;27;20229;-69
2021/09/23 22:36:12;;;;;;;5.27;4.80;;;;;;;13.79;100.00;98883.47;21057914;27;20311;-69
2021/09/23 22:46:14;;;;;;;5.93;5.00;;;;;;;13.86;100.00;98879.19;21056274;27;20291;-69
2021/09/23 22:56:18;;;;;;;4.20;3.90;;;;;;;13.91;100.00;98843.84;21056718;27;20405;-70
2021/09/23 23:06:20;;;;;;;5.07;3.23;;;;;;;13.88;100.00;98855.75;21055918;27;20220;-69
2021/09/23 23:16:24;;;;;;;2.93;2.67;;;;;;;14.21;100.00;98878.31;21055047;27;20240;-69
2021/09/23 23:46:20;;;;;;;3.77;2.10;;;;;;;14.06;100.00;98945.06;21072377;27;20627;-69
2021/09/23 23:56:22;;;;;;;6.33;1.80;;;;;;;12.85;100.00;98973.09;21059320;27;20233;-69
